createdAt,value
2018-09-26T00:02:31.126Z,59.80
2018-09-26T00:05:02.950Z,59.80
2018-09-26T00:07:35.246Z,59.70
2018-09-26T00:10:07.047Z,59.80
2018-09-26T00:12:40.766Z,59.80
2018-09-26T00:15:13.530Z,59.60
2018-09-26T00:17:45.927Z,59.90
2018-09-26T00:20:17.488Z,60.00
2018-09-26T00:22:50.287Z,60.00
2018-09-26T00:25:22.526Z,60.00
2018-09-26T00:27:54.566Z,60.10
2018-09-26T00:30:26.647Z,60.10
2018-09-26T00:32:57.706Z,60.20
2018-09-26T00:35:29.307Z,60.30
2018-09-26T00:38:01.149Z,59.80
2018-09-26T00:40:32.887Z,59.90
2018-09-26T00:43:04.526Z,59.90
2018-09-26T00:45:36.207Z,59.90
2018-09-26T00:48:08.247Z,60.00
2018-09-26T00:50:40.846Z,60.00
2018-09-26T00:53:12.448Z,59.80
2018-09-26T00:55:43.953Z,59.40
2018-09-26T00:58:16.168Z,59.40
2018-09-26T01:00:48.606Z,60.00
2018-09-26T01:03:19.827Z,60.40
2018-09-26T01:05:52.247Z,61.00
2018-09-26T01:08:23.767Z,61.30
2018-09-26T01:10:55.587Z,61.50
2018-09-26T01:13:26.747Z,61.90
2018-09-26T01:15:57.669Z,61.90
2018-09-26T01:18:29.567Z,62.10
2018-09-26T01:21:01.126Z,62.40
2018-09-26T01:23:32.827Z,62.70
2018-09-26T01:26:04.006Z,62.80
2018-09-26T01:28:36.206Z,63.50
2018-09-26T01:31:07.707Z,62.70
2018-09-26T01:33:40.267Z,62.70
2018-09-26T01:36:12.407Z,62.90
2018-09-26T01:38:43.948Z,63.10
2018-09-26T01:41:15.397Z,63.20
2018-09-26T01:43:47.806Z,62.40
2018-09-26T01:46:19.067Z,62.30
2018-09-26T01:48:51.588Z,62.30
2018-09-26T01:51:23.027Z,62.20
2018-09-26T01:53:55.747Z,62.70
2018-09-26T01:56:27.888Z,62.80
2018-09-26T01:58:59.127Z,63.20
2018-09-26T02:01:30.487Z,63.70
2018-09-26T02:04:02.287Z,64.00
2018-09-26T02:06:33.547Z,62.80
2018-09-26T02:09:05.787Z,63.00
2018-09-26T02:11:36.887Z,63.50
2018-09-26T02:14:09.368Z,63.90
2018-09-26T02:16:41.166Z,64.20
2018-09-26T02:19:12.767Z,64.20
2018-09-26T02:21:43.927Z,63.80
2018-09-26T02:24:16.007Z,64.00
2018-09-26T02:26:46.867Z,64.60
2018-09-26T02:29:19.107Z,64.60
2018-09-26T02:31:50.487Z,64.60
2018-09-26T02:34:21.694Z,64.90
2018-09-26T02:36:53.427Z,64.60
2018-09-26T02:39:25.107Z,65.00
2018-09-26T02:41:56.807Z,65.30
2018-09-26T02:44:28.267Z,65.60
2018-09-26T02:47:00.069Z,65.70
2018-09-26T02:49:31.386Z,65.90
2018-09-26T02:52:02.567Z,66.50
2018-09-26T02:54:34.507Z,65.90
2018-09-26T02:57:05.687Z,65.90
2018-09-26T02:59:36.987Z,66.00
2018-09-26T03:02:08.369Z,66.20
2018-09-26T03:04:40.588Z,66.10
2018-09-26T03:07:11.827Z,66.40
2018-09-26T03:09:43.447Z,66.70
2018-09-26T03:12:15.187Z,66.80
2018-09-26T03:14:47.667Z,66.80
2018-09-26T03:17:18.867Z,66.90
2018-09-26T03:19:50.207Z,67.20
2018-09-26T03:22:21.787Z,67.20
2018-09-26T03:24:53.547Z,67.10
2018-09-26T03:27:25.594Z,67.30
2018-09-26T03:29:57.126Z,67.60
2018-09-26T03:32:29.127Z,67.80
2018-09-26T03:35:01.217Z,67.90
2018-09-26T03:37:32.707Z,67.70
2018-09-26T03:40:05.167Z,67.80
2018-09-26T03:42:36.411Z,68.00
2018-09-26T03:45:08.510Z,67.90
2018-09-26T03:47:39.689Z,68.10
2018-09-26T03:50:11.887Z,68.30
2018-09-26T03:52:43.426Z,68.20
2018-09-26T03:55:15.246Z,68.60
2018-09-26T03:57:46.906Z,68.60
2018-09-26T04:00:19.127Z,68.80
2018-09-26T04:02:50.267Z,68.80
2018-09-26T04:05:21.966Z,68.80
2018-09-26T04:07:53.606Z,69.00
2018-09-26T04:10:25.307Z,69.30
2018-09-26T04:12:56.657Z,69.60
2018-09-26T04:15:28.337Z,69.70
2018-09-26T04:18:00.007Z,69.40
2018-09-26T04:20:31.597Z,70.00
2018-09-26T04:23:03.448Z,69.80
2018-09-26T04:25:34.606Z,68.50
2018-09-26T04:28:06.235Z,68.40
2018-09-26T04:30:37.827Z,68.40
2018-09-26T04:33:10.354Z,68.30
2018-09-26T04:35:41.747Z,67.60
2018-09-26T04:38:12.846Z,68.10
2018-09-26T04:40:44.826Z,67.80
2018-09-26T04:43:16.911Z,67.90
2018-09-26T04:45:48.206Z,68.20
2018-09-26T04:48:20.247Z,67.80
2018-09-26T04:50:52.232Z,68.00
2018-09-26T04:53:24.051Z,68.10
2018-09-26T04:55:55.747Z,68.20
2018-09-26T04:58:28.129Z,69.20
2018-09-26T05:00:59.820Z,69.10
2018-09-26T05:03:31.527Z,69.60
2018-09-26T05:06:03.366Z,69.50
2018-09-26T05:08:35.395Z,69.60
2018-09-26T05:11:07.027Z,69.60
2018-09-26T05:13:39.127Z,69.80
2018-09-26T05:16:10.388Z,69.90
2018-09-26T05:18:42.467Z,69.90
2018-09-26T05:21:13.968Z,69.70
2018-09-26T05:23:46.127Z,69.90
2018-09-26T05:26:18.232Z,69.50
2018-09-26T05:28:49.987Z,69.90
2018-09-26T05:31:22.548Z,69.90
2018-09-26T05:33:54.234Z,69.80
2018-09-26T05:36:25.669Z,70.20
2018-09-26T05:38:57.267Z,70.10
2018-09-26T05:41:28.667Z,69.80
2018-09-26T05:44:00.067Z,70.20
2018-09-26T05:46:32.026Z,70.00
2018-09-26T05:49:03.687Z,70.20
2018-09-26T05:51:35.907Z,70.30
2018-09-26T05:54:07.781Z,70.50
2018-09-26T05:56:39.527Z,70.70
2018-09-26T05:59:11.826Z,69.70
2018-09-26T06:01:43.730Z,69.50
2018-09-26T06:04:17.127Z,69.40
2018-09-26T06:06:49.107Z,69.60
2018-09-26T06:09:21.965Z,69.40
2018-09-26T06:11:53.127Z,69.10
2018-09-26T06:14:25.227Z,69.20
2018-09-26T06:16:56.478Z,69.30
2018-09-26T06:19:29.015Z,69.60
2018-09-26T06:22:00.956Z,69.50
2018-09-26T06:24:33.447Z,69.50
2018-09-26T06:27:06.696Z,69.60
2018-09-26T06:29:38.936Z,69.80
2018-09-26T06:32:10.869Z,69.90
2018-09-26T06:34:43.688Z,69.70
2018-09-26T06:37:15.649Z,69.30
2018-09-26T06:39:47.529Z,69.30
2018-09-26T06:42:19.769Z,69.40
2018-09-26T06:44:52.003Z,69.60
2018-09-26T06:47:23.650Z,70.00
2018-09-26T06:49:54.722Z,70.20
2018-09-26T06:52:26.482Z,70.60
2018-09-26T06:54:58.402Z,70.70
2018-09-26T06:57:29.611Z,70.90
2018-09-26T07:00:01.484Z,71.00
2018-09-26T07:02:32.643Z,71.70
2018-09-26T07:05:04.626Z,70.40
2018-09-26T07:07:35.886Z,69.90
2018-09-26T07:10:07.463Z,70.00
2018-09-26T07:12:39.103Z,69.60
2018-09-26T07:15:11.344Z,68.20
2018-09-26T07:17:42.743Z,68.50
2018-09-26T07:20:13.758Z,68.40
2018-09-26T07:22:45.739Z,68.50
2018-09-26T07:25:18.023Z,68.30
2018-09-26T07:27:49.861Z,67.30
2018-09-26T07:30:21.160Z,67.90
2018-09-26T07:32:53.229Z,67.50
2018-09-26T07:35:24.789Z,67.20
2018-09-26T07:37:56.689Z,66.60
2018-09-26T07:40:28.829Z,66.20
2018-09-26T07:43:00.530Z,65.80
2018-09-26T07:45:32.733Z,65.60
2018-09-26T07:48:03.790Z,65.50
2018-09-26T07:50:36.169Z,65.50
2018-09-26T07:53:08.210Z,66.00
2018-09-26T07:55:39.949Z,65.80
2018-09-26T07:58:12.249Z,65.60
2018-09-26T08:00:43.992Z,65.50
2018-09-26T08:03:15.871Z,65.60
2018-09-26T08:05:48.040Z,64.80
2018-09-26T08:08:19.514Z,64.90
2018-09-26T08:10:51.674Z,64.80
2018-09-26T08:13:23.895Z,64.30
2018-09-26T08:15:55.495Z,65.00
2018-09-26T08:18:26.975Z,65.10
2018-09-26T08:20:58.846Z,65.40
2018-09-26T08:23:31.192Z,65.40
2018-09-26T08:26:02.119Z,64.80
2018-09-26T08:28:34.223Z,64.90
2018-09-26T08:31:05.640Z,65.30
2018-09-26T08:33:37.859Z,64.10
2018-09-26T08:36:09.500Z,64.60
2018-09-26T08:38:41.559Z,64.60
2018-09-26T08:41:12.879Z,64.60
2018-09-26T08:43:44.713Z,64.60
2018-09-26T08:46:16.161Z,65.20
2018-09-26T08:48:48.321Z,65.30
2018-09-26T08:51:19.721Z,65.30
2018-09-26T08:53:51.593Z,64.60
2018-09-26T08:56:23.358Z,65.30
2018-09-26T08:58:54.388Z,64.50
2018-09-26T09:01:29.906Z,64.70
2018-09-26T09:04:02.796Z,63.90
2018-09-26T09:06:34.390Z,64.50
2018-09-26T09:09:07.887Z,63.90
2018-09-26T09:11:40.366Z,63.70
2018-09-26T09:14:11.769Z,64.70
2018-09-26T09:16:43.840Z,63.50
2018-09-26T09:19:15.441Z,62.20
2018-09-26T09:21:46.838Z,62.50
2018-09-26T09:24:18.708Z,61.80
2018-09-26T09:26:49.749Z,60.50
2018-09-26T09:29:21.520Z,60.80
2018-09-26T09:31:53.330Z,61.60
2018-09-26T09:34:24.963Z,61.00
2018-09-26T09:36:57.267Z,61.00
2018-09-26T09:39:28.575Z,61.40
2018-09-26T09:42:00.268Z,61.70
2018-09-26T09:44:31.858Z,61.30
2018-09-26T09:47:03.417Z,61.20
2018-09-26T09:49:35.777Z,60.60
2018-09-26T09:52:07.706Z,59.90
2018-09-26T09:54:39.703Z,60.00
2018-09-26T09:57:12.158Z,59.70
2018-09-26T09:59:43.517Z,59.10
2018-09-26T10:02:15.609Z,59.10
2018-09-26T10:04:47.246Z,59.70
2018-09-26T10:07:19.521Z,59.30
2018-09-26T10:09:50.098Z,59.30
2018-09-26T10:12:23.204Z,58.80
2018-09-26T10:14:54.626Z,59.20
2018-09-26T10:17:26.867Z,58.20
2018-09-26T10:19:58.223Z,58.70
2018-09-26T10:22:30.863Z,57.90
2018-09-26T10:25:02.367Z,58.10
2018-09-26T10:27:33.624Z,57.80
2018-09-26T10:30:04.762Z,57.30
2018-09-26T10:32:36.822Z,57.30
2018-09-26T10:35:08.642Z,56.70
2018-09-26T10:37:40.782Z,56.80
2018-09-26T10:40:13.161Z,56.70
2018-09-26T10:42:45.360Z,56.40
2018-09-26T10:45:17.351Z,55.30
2018-09-26T10:47:49.151Z,55.20
2018-09-26T10:50:21.012Z,55.40
2018-09-26T10:52:53.691Z,54.50
2018-09-26T10:55:24.871Z,54.40
2018-09-26T10:57:56.614Z,53.90
2018-09-26T11:00:28.980Z,51.30
2018-09-26T11:03:00.819Z,52.00
2018-09-26T11:05:32.421Z,51.90
2018-09-26T11:08:03.973Z,51.30
2018-09-26T11:10:35.552Z,51.80
2018-09-26T11:13:08.173Z,50.60
2018-09-26T11:15:38.431Z,50.90
2018-09-26T11:18:10.550Z,50.90
2018-09-26T11:20:41.851Z,50.90
2018-09-26T11:23:12.610Z,49.30
2018-09-26T11:25:44.201Z,49.50
2018-09-26T11:28:16.325Z,47.30
2018-09-26T11:30:48.360Z,48.00
2018-09-26T11:33:19.813Z,47.40
2018-09-26T11:35:51.998Z,48.00
2018-09-26T11:38:24.032Z,48.90
2018-09-26T11:40:55.696Z,47.80
2018-09-26T11:43:27.845Z,47.90
2018-09-26T11:46:00.205Z,47.60
2018-09-26T11:48:31.080Z,48.30
2018-09-26T11:51:02.822Z,48.30
2018-09-26T11:53:34.803Z,48.00
2018-09-26T11:56:06.989Z,47.80
2018-09-26T11:58:38.123Z,48.20
2018-09-26T12:01:09.779Z,48.80
2018-09-26T12:03:41.419Z,49.20
2018-09-26T12:06:12.696Z,48.80
2018-09-26T12:08:44.307Z,48.20
2018-09-26T12:11:16.448Z,48.30
2018-09-26T12:13:48.308Z,47.40
2018-09-26T12:16:20.176Z,47.90
2018-09-26T12:18:51.686Z,48.00
2018-09-26T12:21:30.444Z,48.70
2018-09-26T12:23:55.246Z,49.20
2018-09-26T12:26:26.619Z,48.70
2018-09-26T12:29:03.650Z,47.90
2018-09-26T12:31:34.411Z,47.80
2018-09-26T12:34:06.686Z,47.10
2018-09-26T12:36:38.255Z,47.60
2018-09-26T12:39:11.815Z,47.20
2018-09-26T12:41:43.615Z,46.50
2018-09-26T12:44:15.323Z,45.60
2018-09-26T12:46:48.384Z,45.30
2018-09-26T12:49:19.825Z,45.80
2018-09-26T12:51:51.619Z,46.60
2018-09-26T12:54:23.700Z,46.70
2018-09-26T12:56:56.142Z,46.80
2018-09-26T12:59:28.304Z,47.40
2018-09-26T13:02:00.792Z,47.00
2018-09-26T13:04:32.660Z,47.40
2018-09-26T13:07:04.260Z,47.20
2018-09-26T13:09:36.710Z,48.10
2018-09-26T13:12:08.187Z,48.10
2018-09-26T13:14:40.553Z,48.60
2018-09-26T13:17:12.340Z,49.00
2018-09-26T13:19:43.380Z,49.30
2018-09-26T13:22:14.458Z,49.40
2018-09-26T13:24:46.980Z,50.20
2018-09-26T13:27:18.866Z,50.50
2018-09-26T13:29:50.621Z,50.80
2018-09-26T13:32:21.930Z,51.40
2018-09-26T13:34:53.120Z,52.00
2018-09-26T13:37:24.806Z,52.10
2018-09-26T13:39:56.688Z,52.50
2018-09-26T13:42:28.529Z,52.90
2018-09-26T13:45:00.485Z,52.60
2018-09-26T13:47:32.642Z,52.90
2018-09-26T13:50:04.026Z,53.20
2018-09-26T13:52:36.197Z,54.00
2018-09-26T13:55:08.359Z,54.30
2018-09-26T13:57:40.015Z,54.20
2018-09-26T14:00:12.663Z,54.30
2018-09-26T14:02:45.815Z,54.40
2018-09-26T14:05:17.454Z,54.70
2018-09-26T14:07:49.094Z,55.00
2018-09-26T14:10:20.954Z,55.10
2018-09-26T14:12:53.914Z,55.20
2018-09-26T14:15:26.173Z,55.20
2018-09-26T14:17:57.974Z,55.30
2018-09-26T14:20:30.059Z,55.40
2018-09-26T14:23:01.840Z,55.60
2018-09-26T14:25:34.535Z,55.40
2018-09-26T14:28:07.280Z,55.20
2018-09-26T14:30:39.430Z,55.80
2018-09-26T14:33:11.573Z,55.90
2018-09-26T14:35:42.909Z,56.30
2018-09-26T14:38:14.814Z,56.70
2018-09-26T14:40:46.972Z,56.80
2018-09-26T14:43:19.509Z,56.50
2018-09-26T14:45:50.934Z,57.00
2018-09-26T14:48:23.410Z,57.30
2018-09-26T14:50:55.592Z,57.40
2018-09-26T14:53:27.334Z,57.40
2018-09-26T14:55:59.211Z,57.40
2018-09-26T14:58:30.891Z,57.40
2018-09-26T15:01:03.509Z,57.70
2018-09-26T15:03:36.171Z,57.90
2018-09-26T15:06:08.215Z,58.10
2018-09-26T15:08:39.654Z,58.10
2018-09-26T15:11:11.888Z,58.40
2018-09-26T15:13:44.449Z,58.50
2018-09-26T15:16:16.509Z,58.60
2018-09-26T15:18:48.576Z,58.70
2018-09-26T15:21:19.670Z,58.80
2018-09-26T15:23:52.050Z,58.80
2018-09-26T15:26:22.841Z,58.70
2018-09-26T15:28:54.798Z,58.90
2018-09-26T15:31:26.318Z,59.00
2018-09-26T15:33:59.803Z,58.90
2018-09-26T15:36:32.078Z,59.10
2018-09-26T15:39:03.598Z,59.20
2018-09-26T15:41:37.381Z,59.20
2018-09-26T15:44:09.401Z,59.30
2018-09-26T15:46:41.217Z,59.50
2018-09-26T15:49:13.462Z,59.30
2018-09-26T15:51:45.778Z,59.30
2018-09-26T15:54:17.621Z,59.40
2018-09-26T15:56:49.799Z,59.10
2018-09-26T15:59:21.438Z,59.00
2018-09-26T16:01:53.678Z,59.50
2018-09-26T16:04:26.794Z,59.30
2018-09-26T16:06:58.338Z,59.00
2018-09-26T16:09:29.978Z,59.00
2018-09-26T16:12:02.099Z,59.00
2018-09-26T16:14:34.079Z,59.00
2018-09-26T16:17:07.420Z,59.20
2018-09-26T16:19:39.719Z,59.40
2018-09-26T16:22:12.308Z,59.50
2018-09-26T16:24:43.701Z,59.60
2018-09-26T16:27:15.899Z,59.00
2018-09-26T16:29:47.720Z,58.90
2018-09-26T16:32:20.498Z,59.10
2018-09-26T16:34:51.899Z,59.30
2018-09-26T16:37:24.319Z,59.40
2018-09-26T16:39:56.459Z,61.50
2018-09-26T16:42:28.300Z,63.20
2018-09-26T16:45:00.361Z,64.10
2018-09-26T16:47:31.420Z,64.70
2018-09-26T16:50:03.421Z,65.50
2018-09-26T16:52:35.026Z,66.60
2018-09-26T16:55:07.340Z,66.70
2018-09-26T16:57:39.479Z,67.30
2018-09-26T17:00:11.691Z,67.20
2018-09-26T17:02:44.522Z,67.50
2018-09-26T17:05:16.141Z,67.70
2018-09-26T17:07:48.439Z,67.70
2018-09-26T17:10:20.279Z,67.90
2018-09-26T17:12:51.959Z,67.80
2018-09-26T17:15:25.100Z,68.10
2018-09-26T17:17:56.759Z,68.50
2018-09-26T17:20:28.920Z,68.50
2018-09-26T17:22:59.799Z,68.80
2018-09-26T17:25:31.579Z,68.70
2018-09-26T17:28:03.407Z,68.70
2018-09-26T17:30:35.519Z,68.80
2018-09-26T17:33:06.858Z,68.90
2018-09-26T17:35:39.200Z,69.20
2018-09-26T17:38:11.079Z,69.40
2018-09-26T17:40:44.059Z,69.60
2018-09-26T17:43:16.579Z,69.60
2018-09-26T17:45:48.198Z,69.70
2018-09-26T17:48:20.298Z,69.90
2018-09-26T17:50:52.019Z,70.10
2018-09-26T17:53:23.005Z,70.30
2018-09-26T17:55:54.449Z,70.30
2018-09-26T17:58:26.628Z,70.30
2018-09-26T18:00:57.907Z,70.20
2018-09-26T18:03:29.679Z,70.40
2018-09-26T18:06:01.047Z,69.80
2018-09-26T18:08:32.607Z,69.70
2018-09-26T18:11:04.686Z,69.90
2018-09-26T18:13:36.246Z,69.90
2018-09-26T18:16:08.646Z,70.10
2018-09-26T18:18:41.606Z,70.00
2018-09-26T18:21:13.425Z,70.00
2018-09-26T18:23:46.345Z,70.10
2018-09-26T18:26:17.659Z,69.30
2018-09-26T18:28:49.709Z,70.00
2018-09-26T18:31:21.647Z,70.10
2018-09-26T18:33:53.686Z,70.00
2018-09-26T18:36:25.826Z,70.10
2018-09-26T18:38:57.971Z,70.10
2018-09-26T18:41:29.905Z,70.60
2018-09-26T18:44:01.906Z,69.90
2018-09-26T18:46:33.947Z,70.30
2018-09-26T18:49:05.886Z,70.20
2018-09-26T18:51:37.946Z,70.50
2018-09-26T18:54:10.026Z,70.90
2018-09-26T18:56:41.505Z,70.60
2018-09-26T18:59:14.030Z,70.80
2018-09-26T19:01:45.468Z,70.70
2018-09-26T19:04:17.508Z,70.70
2018-09-26T19:06:49.045Z,70.90
2018-09-26T19:09:21.146Z,70.90
2018-09-26T19:11:52.365Z,70.90
2018-09-26T19:14:24.225Z,71.10
2018-09-26T19:16:56.165Z,71.30
2018-09-26T19:19:28.367Z,71.50
2018-09-26T19:22:00.165Z,71.60
2018-09-26T19:24:31.485Z,71.90
2018-09-26T19:27:03.962Z,72.00
2018-09-26T19:29:36.185Z,72.10
2018-09-26T19:32:08.026Z,72.30
2018-09-26T19:34:39.487Z,72.30
2018-09-26T19:37:11.206Z,72.60
2018-09-26T19:39:43.088Z,72.90
2018-09-26T19:42:14.547Z,72.90
2018-09-26T19:44:47.348Z,72.90
2018-09-26T19:47:19.528Z,73.00
2018-09-26T19:49:51.527Z,73.20
2018-09-26T19:52:23.734Z,73.40
2018-09-26T19:54:55.326Z,73.70
2018-09-26T19:57:27.627Z,73.70
2018-09-26T19:59:59.605Z,73.60
2018-09-26T20:02:31.487Z,73.50
2018-09-26T20:05:03.485Z,73.90
2018-09-26T20:07:35.467Z,73.90
2018-09-26T20:10:08.569Z,73.60
2018-09-26T20:12:41.087Z,73.90
2018-09-26T20:15:12.767Z,74.00
2018-09-26T20:17:45.185Z,74.20
2018-09-26T20:20:17.405Z,74.10
2018-09-26T20:22:49.668Z,74.10
2018-09-26T20:25:21.885Z,74.20
2018-09-26T20:27:53.787Z,74.10
2018-09-26T20:30:26.345Z,74.00
2018-09-26T20:32:58.346Z,73.90
2018-09-26T20:35:30.401Z,74.10
2018-09-26T20:38:02.465Z,74.10
2018-09-26T20:40:34.665Z,74.10
2018-09-26T20:43:07.145Z,74.00
2018-09-26T20:45:39.705Z,74.10
2018-09-26T20:48:11.686Z,74.30
2018-09-26T20:50:44.305Z,74.00
2018-09-26T20:53:16.505Z,74.20
2018-09-26T20:55:47.766Z,74.40
2018-09-26T20:58:20.093Z,74.10
2018-09-26T21:00:52.506Z,74.10
2018-09-26T21:03:25.669Z,73.90
2018-09-26T21:05:57.747Z,74.10
2018-09-26T21:08:30.965Z,74.10
2018-09-26T21:11:02.565Z,74.00
2018-09-26T21:13:34.245Z,74.80
2018-09-26T21:16:05.787Z,73.80
2018-09-26T21:18:38.186Z,73.90
2018-09-26T21:21:09.607Z,74.00
2018-09-26T21:23:41.726Z,74.00
2018-09-26T21:26:13.926Z,74.00
2018-09-26T21:28:45.552Z,74.00
2018-09-26T21:31:18.220Z,73.80
2018-09-26T21:33:50.126Z,73.70
2018-09-26T21:36:22.028Z,73.60
2018-09-26T21:38:53.857Z,73.60
2018-09-26T21:41:25.626Z,73.80
2018-09-26T21:43:57.866Z,73.90
2018-09-26T21:46:29.566Z,74.00
2018-09-26T21:49:01.506Z,73.90
2018-09-26T21:51:33.287Z,73.90
2018-09-26T21:54:05.126Z,74.00
2018-09-26T21:56:36.985Z,74.10
2018-09-26T21:59:08.204Z,74.20
2018-09-26T22:01:40.284Z,74.20
2018-09-26T22:04:12.844Z,74.30
2018-09-26T22:06:44.964Z,74.70
2018-09-26T22:09:16.843Z,74.60
2018-09-26T22:11:48.586Z,74.60
2018-09-26T22:14:20.943Z,74.70
2018-09-26T22:16:53.563Z,74.80
2018-09-26T22:19:25.504Z,74.60
2018-09-26T22:21:57.405Z,75.00
2018-09-26T22:24:29.222Z,74.80
2018-09-26T22:27:00.944Z,74.80
2018-09-26T22:29:32.622Z,74.80
2018-09-26T22:32:04.624Z,74.80
2018-09-26T22:34:37.111Z,75.00
2018-09-26T22:37:09.044Z,74.80
2018-09-26T22:39:41.604Z,74.40
2018-09-26T22:42:12.824Z,73.70
2018-09-26T22:44:45.505Z,73.60
2018-09-26T22:47:17.804Z,73.50
2018-09-26T22:49:50.064Z,73.20
2018-09-26T22:52:21.868Z,72.90
2018-09-26T22:54:53.585Z,72.90
2018-09-26T22:57:25.808Z,73.80
2018-09-26T22:59:57.804Z,73.10
2018-09-26T23:02:30.324Z,73.10
2018-09-26T23:05:02.525Z,73.10
2018-09-26T23:07:34.324Z,73.40
2018-09-26T23:10:06.124Z,73.40
2018-09-26T23:12:37.484Z,73.70
2018-09-26T23:15:09.744Z,73.80
2018-09-26T23:17:41.464Z,73.70
2018-09-26T23:20:13.624Z,73.70
2018-09-26T23:22:45.444Z,73.80
2018-09-26T23:25:17.024Z,73.80
2018-09-26T23:27:49.506Z,73.80
2018-09-26T23:30:21.225Z,73.80
2018-09-26T23:32:53.345Z,73.80
2018-09-26T23:35:24.484Z,73.90
2018-09-26T23:37:56.444Z,74.00
2018-09-26T23:40:28.384Z,74.30
2018-09-26T23:43:00.324Z,74.20
2018-09-26T23:45:31.825Z,74.10
2018-09-26T23:48:04.505Z,74.10
2018-09-26T23:50:35.504Z,74.00
2018-09-26T23:53:07.824Z,74.10
2018-09-26T23:55:39.664Z,74.70
2018-09-26T23:58:10.524Z,74.50
